createdAt,value
2023-05-09T00:00:58.810Z,40.80
2023-05-09T00:03:02.197Z,41.00
2023-05-09T00:05:09.874Z,40.90
2023-05-09T00:07:13.823Z,41.20
2023-05-09T00:09:18.948Z,41.00
2023-05-09T00:11:22.922Z,41.00
2023-05-09T00:13:27.432Z,40.90
2023-05-09T00:15:36.780Z,40.90
2023-05-09T00:17:41.478Z,40.90
2023-05-09T00:19:45.400Z,40.80
2023-05-09T00:21:49.649Z,40.70
2023-05-09T00:23:52.502Z,40.60
2023-05-09T00:26:00.592Z,40.50
2023-05-09T00:28:03.500Z,40.60
2023-05-09T00:30:08.908Z,40.50
2023-05-09T00:32:12.422Z,40.50
2023-05-09T00:34:15.637Z,40.30
2023-05-09T00:36:18.475Z,40.30
2023-05-09T00:38:24.130Z,40.40
2023-05-09T00:40:28.441Z,40.50
2023-05-09T00:42:32.571Z,40.40
2023-05-09T00:44:35.513Z,40.40
2023-05-09T00:46:39.565Z,40.50
2023-05-09T00:48:42.588Z,40.60
2023-05-09T00:50:47.546Z,40.70
2023-05-09T00:52:51.451Z,41.00
2023-05-09T00:54:56.988Z,41.20
2023-05-09T00:57:02.223Z,41.30
2023-05-09T00:59:06.337Z,41.00
2023-05-09T01:01:10.912Z,40.70
2023-05-09T01:03:13.988Z,41.40
2023-05-09T01:05:19.949Z,40.50
2023-05-09T01:07:31.029Z,40.60
2023-05-09T01:09:46.819Z,40.70
2023-05-09T01:12:03.858Z,41.10
2023-05-09T01:14:14.025Z,41.00
2023-05-09T01:16:26.689Z,40.80
2023-05-09T01:18:39.304Z,41.00
2023-05-09T01:20:45.863Z,41.00
2023-05-09T01:23:06.432Z,40.90
2023-05-09T01:25:37.529Z,41.00
2023-05-09T01:27:53.472Z,41.10
2023-05-09T01:30:00.415Z,41.10
2023-05-09T01:32:09.159Z,41.00
2023-05-09T01:34:15.203Z,41.00
2023-05-09T01:36:21.350Z,40.90
2023-05-09T01:38:26.786Z,41.20
2023-05-09T01:40:32.879Z,41.40
2023-05-09T01:42:46.012Z,41.40
2023-05-09T01:44:50.237Z,41.90
2023-05-09T01:46:56.412Z,41.50
2023-05-09T01:49:00.574Z,41.60
2023-05-09T01:51:06.120Z,41.80
2023-05-09T01:53:11.507Z,41.90
2023-05-09T01:55:15.882Z,42.00
2023-05-09T01:57:23.460Z,42.00
2023-05-09T01:59:31.536Z,41.90
2023-05-09T02:01:36.312Z,42.00
2023-05-09T02:03:41.321Z,42.00
2023-05-09T02:05:46.021Z,42.20
2023-05-09T02:07:49.745Z,42.30
2023-05-09T02:09:57.588Z,42.40
2023-05-09T02:12:04.413Z,42.50
2023-05-09T02:14:07.310Z,42.70
2023-05-09T02:16:12.079Z,42.60
2023-05-09T02:18:16.866Z,42.80
2023-05-09T02:20:21.675Z,42.90
2023-05-09T02:22:25.341Z,43.10
2023-05-09T02:24:28.619Z,43.20
2023-05-09T02:26:32.523Z,43.30
2023-05-09T02:28:36.811Z,43.40
2023-05-09T02:30:43.809Z,43.50
2023-05-09T02:32:49.804Z,43.80
2023-05-09T02:34:56.956Z,43.90
2023-05-09T02:37:01.444Z,44.00
2023-05-09T02:39:04.580Z,43.90
2023-05-09T02:41:07.660Z,43.90
2023-05-09T02:43:10.805Z,43.80
2023-05-09T02:45:13.873Z,43.70
2023-05-09T02:47:17.014Z,43.80
2023-05-09T02:49:31.461Z,43.80
2023-05-09T02:51:36.361Z,44.10
2023-05-09T02:53:43.205Z,44.10
2023-05-09T02:55:50.184Z,44.50
2023-05-09T02:58:05.310Z,44.40
2023-05-09T03:00:17.983Z,44.50
2023-05-09T03:02:23.657Z,44.70
2023-05-09T03:04:30.476Z,44.80
2023-05-09T03:06:34.682Z,45.10
2023-05-09T03:08:37.680Z,45.20
2023-05-09T03:10:43.732Z,45.30
2023-05-09T03:12:47.548Z,45.20
2023-05-09T03:14:50.491Z,45.30
2023-05-09T03:16:53.524Z,45.40
2023-05-09T03:19:08.564Z,45.40
2023-05-09T03:21:11.599Z,45.60
2023-05-09T03:23:15.858Z,45.50
2023-05-09T03:25:18.895Z,45.60
2023-05-09T03:27:26.123Z,45.70
2023-05-09T03:29:29.439Z,45.80
2023-05-09T03:31:36.872Z,46.00
2023-05-09T03:33:44.059Z,46.00
2023-05-09T03:35:48.604Z,46.00
2023-05-09T03:37:55.090Z,45.90
2023-05-09T03:39:58.159Z,45.90
2023-05-09T03:42:02.076Z,46.00
2023-05-09T03:44:06.709Z,45.90
2023-05-09T03:46:10.107Z,46.10
2023-05-09T03:48:14.830Z,46.00
2023-05-09T03:50:22.854Z,46.10
2023-05-09T03:52:27.007Z,46.00
2023-05-09T03:54:33.998Z,46.00
2023-05-09T03:56:37.337Z,46.10
2023-05-09T03:58:40.489Z,46.00
2023-05-09T04:00:46.133Z,46.20
2023-05-09T04:02:56.060Z,46.10
2023-05-09T04:05:08.689Z,46.30
2023-05-09T04:07:15.113Z,46.00
2023-05-09T04:09:18.285Z,46.20
2023-05-09T04:11:25.066Z,46.10
2023-05-09T04:13:29.831Z,46.30
2023-05-09T04:15:34.268Z,46.30
2023-05-09T04:17:41.463Z,46.20
2023-05-09T04:19:45.996Z,46.20
2023-05-09T04:21:49.791Z,46.00
2023-05-09T04:23:52.652Z,46.10
2023-05-09T04:26:02.678Z,46.30
2023-05-09T04:28:11.986Z,46.30
2023-05-09T04:30:17.836Z,46.40
2023-05-09T04:32:23.154Z,46.60
2023-05-09T04:34:27.798Z,46.50
2023-05-09T04:36:33.881Z,46.70
2023-05-09T04:38:36.951Z,46.90
2023-05-09T04:40:43.948Z,47.20
2023-05-09T04:42:46.975Z,47.10
2023-05-09T04:44:50.391Z,47.00
2023-05-09T04:46:55.035Z,46.90
2023-05-09T04:48:57.921Z,47.00
2023-05-09T04:51:04.304Z,47.10
2023-05-09T04:53:08.370Z,47.20
2023-05-09T04:55:14.073Z,47.30
2023-05-09T04:57:21.251Z,47.40
2023-05-09T04:59:29.848Z,47.60
2023-05-09T05:01:33.242Z,47.50
2023-05-09T05:03:36.853Z,47.40
2023-05-09T05:05:41.559Z,47.40
2023-05-09T05:07:46.306Z,47.50
2023-05-09T05:09:56.459Z,47.50
2023-05-09T05:12:02.374Z,47.50
2023-05-09T05:14:07.922Z,47.70
2023-05-09T05:16:10.955Z,47.70
2023-05-09T05:18:14.286Z,47.90
2023-05-09T05:20:21.759Z,48.00
2023-05-09T05:22:29.013Z,48.10
2023-05-09T05:24:36.535Z,48.30
2023-05-09T05:26:39.413Z,48.20
2023-05-09T05:28:42.367Z,48.00
2023-05-09T05:30:47.999Z,47.70
2023-05-09T05:32:51.135Z,47.80
2023-05-09T05:34:57.262Z,47.80
2023-05-09T05:37:00.492Z,47.70
2023-05-09T05:39:03.502Z,47.80
2023-05-09T05:41:11.151Z,47.90
2023-05-09T05:43:15.063Z,47.90
2023-05-09T05:45:20.548Z,47.80
2023-05-09T05:47:31.212Z,47.80
2023-05-09T05:49:35.886Z,47.60
2023-05-09T05:51:39.331Z,48.20
2023-05-09T05:53:45.179Z,47.70
2023-05-09T05:55:50.273Z,47.60
2023-05-09T05:57:58.285Z,47.80
2023-05-09T06:00:01.926Z,47.80
2023-05-09T06:02:05.025Z,47.70
2023-05-09T06:04:10.593Z,47.50
2023-05-09T06:06:13.837Z,47.50
2023-05-09T06:08:21.861Z,47.50
2023-05-09T06:10:26.681Z,47.60
2023-05-09T06:12:30.977Z,47.70
2023-05-09T06:14:37.711Z,47.70
2023-05-09T06:16:41.153Z,47.80
2023-05-09T06:18:44.802Z,47.80
2023-05-09T06:20:47.749Z,48.10
2023-05-09T06:22:56.750Z,47.90
2023-05-09T06:25:02.088Z,47.90
2023-05-09T06:27:05.797Z,47.70
2023-05-09T06:29:08.783Z,47.40
2023-05-09T06:31:13.100Z,47.40
2023-05-09T06:33:15.994Z,47.20
2023-05-09T06:35:19.284Z,47.10
2023-05-09T06:37:22.408Z,47.40
2023-05-09T06:39:25.320Z,47.20
2023-05-09T06:41:30.437Z,46.90
2023-05-09T06:43:33.341Z,46.90
2023-05-09T06:45:38.737Z,47.10
2023-05-09T06:47:45.423Z,47.00
2023-05-09T06:49:48.350Z,47.00
2023-05-09T06:51:51.265Z,47.50
2023-05-09T06:53:54.154Z,47.30
2023-05-09T06:55:57.166Z,47.10
2023-05-09T06:58:00.266Z,46.90
2023-05-09T07:00:04.791Z,46.80
2023-05-09T07:02:08.698Z,46.70
2023-05-09T07:04:12.984Z,46.60
2023-05-09T07:06:15.999Z,46.70
2023-05-09T07:08:20.763Z,46.70
2023-05-09T07:10:23.741Z,46.60
2023-05-09T07:12:26.700Z,46.40
2023-05-09T07:14:29.662Z,46.30
2023-05-09T07:16:34.105Z,46.20
2023-05-09T07:18:38.819Z,45.70
2023-05-09T07:20:43.116Z,45.00
2023-05-09T07:22:46.316Z,45.40
2023-05-09T07:24:49.200Z,45.30
2023-05-09T07:26:54.209Z,45.20
2023-05-09T07:29:01.636Z,45.30
2023-05-09T07:31:05.994Z,45.30
2023-05-09T07:33:08.982Z,45.00
2023-05-09T07:35:14.894Z,45.30
2023-05-09T07:37:26.766Z,45.40
2023-05-09T07:39:33.473Z,44.50
2023-05-09T07:41:38.516Z,43.90
2023-05-09T07:43:41.554Z,43.70
2023-05-09T07:45:44.994Z,43.40
2023-05-09T07:47:47.999Z,42.40
2023-05-09T07:49:52.788Z,41.80
2023-05-09T07:51:55.642Z,41.10
2023-05-09T07:53:59.934Z,40.30
2023-05-09T07:56:02.860Z,39.90
2023-05-09T07:58:05.949Z,39.30
2023-05-09T08:00:10.746Z,38.50
2023-05-09T08:02:20.622Z,37.90
2023-05-09T08:04:26.347Z,37.80
2023-05-09T08:06:29.285Z,37.20
2023-05-09T08:08:32.407Z,36.20
2023-05-09T08:10:36.835Z,36.20
2023-05-09T08:12:40.092Z,36.20
2023-05-09T08:14:45.544Z,35.30
2023-05-09T08:16:48.515Z,35.30
2023-05-09T08:18:52.691Z,36.00
2023-05-09T08:20:58.331Z,36.00
2023-05-09T08:23:01.302Z,35.30
2023-05-09T08:25:04.173Z,35.60
2023-05-09T08:27:13.248Z,35.40
2023-05-09T08:29:17.585Z,35.60
2023-05-09T08:31:21.233Z,35.60
2023-05-09T08:33:24.169Z,35.70
2023-05-09T08:35:27.038Z,35.20
2023-05-09T08:37:29.944Z,34.10
2023-05-09T08:39:34.911Z,33.70
2023-05-09T08:41:39.726Z,33.10
2023-05-09T08:43:48.683Z,33.20
2023-05-09T08:45:55.295Z,32.60
2023-05-09T08:48:02.134Z,32.50
2023-05-09T08:50:06.034Z,32.00
2023-05-09T08:52:11.335Z,32.30
2023-05-09T08:54:14.823Z,32.00
2023-05-09T08:56:18.182Z,32.10
2023-05-09T08:58:22.470Z,32.20
2023-05-09T09:00:28.502Z,32.10
2023-05-09T09:02:33.502Z,32.50
2023-05-09T09:04:44.585Z,32.70
2023-05-09T09:06:48.067Z,32.50
2023-05-09T09:08:51.790Z,32.70
2023-05-09T09:10:55.305Z,33.40
2023-05-09T09:13:00.324Z,32.70
2023-05-09T09:15:06.709Z,32.90
2023-05-09T09:17:12.985Z,32.70
2023-05-09T09:19:23.298Z,32.50
2023-05-09T09:21:26.430Z,32.70
2023-05-09T09:23:31.353Z,30.80
2023-05-09T09:25:34.522Z,30.60
2023-05-09T09:27:37.401Z,30.60
2023-05-09T09:29:40.369Z,30.20
2023-05-09T09:31:47.072Z,29.90
2023-05-09T09:33:53.491Z,30.00
2023-05-09T09:36:00.422Z,30.10
2023-05-09T09:38:03.467Z,30.10
2023-05-09T09:40:12.533Z,30.00
2023-05-09T09:42:16.122Z,30.00
2023-05-09T09:44:26.947Z,30.30
2023-05-09T09:46:41.478Z,30.40
2023-05-09T09:48:51.054Z,30.30
2023-05-09T09:50:59.268Z,30.50
2023-05-09T09:53:02.548Z,30.20
2023-05-09T09:55:16.637Z,30.00
2023-05-09T09:57:37.184Z,30.40
2023-05-09T09:59:42.546Z,30.30
2023-05-09T10:01:59.613Z,30.10
2023-05-09T10:04:04.736Z,30.40
2023-05-09T10:06:18.476Z,30.30
2023-05-09T10:08:23.091Z,30.70
2023-05-09T10:10:34.387Z,30.00
2023-05-09T10:12:38.302Z,30.00
2023-05-09T10:14:44.707Z,30.20
2023-05-09T10:16:49.480Z,30.20
2023-05-09T10:18:53.483Z,29.80
2023-05-09T10:21:01.045Z,30.00
2023-05-09T10:23:07.077Z,29.80
2023-05-09T10:25:16.262Z,29.20
2023-05-09T10:27:24.799Z,29.10
2023-05-09T10:29:31.855Z,28.90
2023-05-09T10:31:40.192Z,28.50
2023-05-09T10:33:48.897Z,28.70
2023-05-09T10:35:53.245Z,28.50
2023-05-09T10:37:58.428Z,28.50
2023-05-09T10:40:08.345Z,28.00
2023-05-09T10:42:12.308Z,27.80
2023-05-09T10:44:17.273Z,28.30
2023-05-09T10:46:20.664Z,28.30
2023-05-09T10:48:26.397Z,28.00
2023-05-09T10:50:32.678Z,27.50
2023-05-09T10:52:35.614Z,27.60
2023-05-09T10:54:41.289Z,27.60
2023-05-09T10:56:45.946Z,27.50
2023-05-09T10:58:49.176Z,27.50
2023-05-09T11:00:54.229Z,27.50
2023-05-09T11:03:11.043Z,27.60
2023-05-09T11:05:18.763Z,27.50
2023-05-09T11:07:26.205Z,27.40
2023-05-09T11:09:32.953Z,27.30
2023-05-09T11:11:51.749Z,26.70
2023-05-09T11:13:59.140Z,26.90
2023-05-09T11:16:16.732Z,26.90
2023-05-09T11:18:19.937Z,26.80
2023-05-09T11:20:29.383Z,26.60
2023-05-09T11:22:45.216Z,26.60
2023-05-09T11:24:49.586Z,26.30
2023-05-09T11:26:52.726Z,26.30
2023-05-09T11:29:00.284Z,26.30
2023-05-09T11:31:13.738Z,26.30
2023-05-09T11:33:24.829Z,26.10
2023-05-09T11:35:31.268Z,25.80
2023-05-09T11:37:36.492Z,25.80
2023-05-09T11:39:58.135Z,25.80
2023-05-09T11:42:03.898Z,27.10
2023-05-09T11:44:15.669Z,27.60
2023-05-09T11:46:18.985Z,27.80
2023-05-09T11:48:26.075Z,28.50
2023-05-09T11:50:29.307Z,28.70
2023-05-09T11:52:34.964Z,28.90
2023-05-09T11:54:39.824Z,29.30
2023-05-09T11:56:42.935Z,29.40
2023-05-09T11:58:46.740Z,29.80
2023-05-09T12:00:51.009Z,29.90
2023-05-09T12:02:54.633Z,30.20
2023-05-09T12:04:57.755Z,30.60
2023-05-09T12:07:03.482Z,31.00
2023-05-09T12:09:06.556Z,31.60
2023-05-09T12:11:10.326Z,31.60
2023-05-09T12:13:17.455Z,31.90
2023-05-09T12:15:21.519Z,32.50
2023-05-09T12:17:26.584Z,32.70
2023-05-09T12:19:31.122Z,32.80
2023-05-09T12:21:34.037Z,33.20
2023-05-09T12:23:37.046Z,33.50
2023-05-09T12:25:49.309Z,33.80
2023-05-09T12:27:56.782Z,34.80
2023-05-09T12:30:02.159Z,35.20
2023-05-09T12:32:05.918Z,34.10
2023-05-09T12:34:12.462Z,34.10
2023-05-09T12:36:17.514Z,34.10
2023-05-09T12:38:22.648Z,34.10
2023-05-09T12:40:26.082Z,33.90
2023-05-09T12:42:29.483Z,34.10
2023-05-09T12:44:32.601Z,34.50
2023-05-09T12:46:37.561Z,34.60
2023-05-09T12:48:44.202Z,34.30
2023-05-09T12:50:50.660Z,34.40
2023-05-09T12:53:02.607Z,34.70
2023-05-09T12:55:07.998Z,34.80
2023-05-09T12:57:24.774Z,35.10
2023-05-09T12:59:30.191Z,35.60
2023-05-09T13:01:37.173Z,35.60
2023-05-09T13:03:40.117Z,35.90
2023-05-09T13:05:44.898Z,36.10
2023-05-09T13:07:53.367Z,35.70
2023-05-09T13:10:00.968Z,35.90
2023-05-09T13:12:09.776Z,36.10
2023-05-09T13:14:13.033Z,36.20
2023-05-09T13:16:17.550Z,36.40
2023-05-09T13:18:22.588Z,36.70
2023-05-09T13:20:25.873Z,36.70
2023-05-09T13:22:32.330Z,37.20
2023-05-09T13:24:38.067Z,37.50
2023-05-09T13:26:43.277Z,37.80
2023-05-09T13:28:46.240Z,38.00
2023-05-09T13:30:53.696Z,38.30
2023-05-09T13:32:56.630Z,39.30
2023-05-09T13:34:59.516Z,38.70
2023-05-09T13:37:05.358Z,38.90
2023-05-09T13:39:09.079Z,39.00
2023-05-09T13:41:19.744Z,39.10
2023-05-09T13:43:22.564Z,39.60
2023-05-09T13:45:27.805Z,39.60
2023-05-09T13:47:30.971Z,39.50
2023-05-09T13:49:33.935Z,39.70
2023-05-09T13:51:36.875Z,39.50
2023-05-09T13:53:40.027Z,39.70
2023-05-09T13:55:43.468Z,40.00
2023-05-09T13:57:48.124Z,40.10
2023-05-09T13:59:53.812Z,40.40
2023-05-09T14:01:59.912Z,40.60
2023-05-09T14:04:03.451Z,40.60
2023-05-09T14:06:06.662Z,40.00
2023-05-09T14:08:12.379Z,40.20
2023-05-09T14:10:15.752Z,40.20
2023-05-09T14:12:21.860Z,40.20
2023-05-09T14:14:26.884Z,40.30
2023-05-09T14:16:29.842Z,40.40
2023-05-09T14:18:32.990Z,40.40
2023-05-09T14:20:40.548Z,40.60
2023-05-09T14:22:43.477Z,40.50
2023-05-09T14:24:46.453Z,40.60
2023-05-09T14:26:49.334Z,40.50
2023-05-09T14:28:52.287Z,40.80
2023-05-09T14:30:59.477Z,40.80
2023-05-09T14:33:04.805Z,40.80
2023-05-09T14:35:09.892Z,40.80
2023-05-09T14:37:14.504Z,40.80
2023-05-09T14:39:20.989Z,41.10
2023-05-09T14:41:25.113Z,41.60
2023-05-09T14:43:29.547Z,41.70
2023-05-09T14:45:34.858Z,41.40
2023-05-09T14:47:41.643Z,41.60
2023-05-09T14:49:46.795Z,41.60
2023-05-09T14:51:49.624Z,41.40
2023-05-09T14:53:55.276Z,41.40
2023-05-09T14:55:58.344Z,41.80
2023-05-09T14:58:01.227Z,41.70
2023-05-09T15:00:19.399Z,41.80
2023-05-09T15:02:27.163Z,41.80
2023-05-09T15:04:32.682Z,41.80
2023-05-09T15:06:37.989Z,42.10
2023-05-09T15:08:41.908Z,42.30
2023-05-09T15:10:46.079Z,42.30
2023-05-09T15:12:50.775Z,42.40
2023-05-09T15:14:55.673Z,42.70
2023-05-09T15:17:01.221Z,43.10
2023-05-09T15:19:05.733Z,43.10
2023-05-09T15:21:10.163Z,43.00
2023-05-09T15:23:15.165Z,42.80
2023-05-09T15:25:19.594Z,43.00
2023-05-09T15:27:22.494Z,42.80
2023-05-09T15:29:25.383Z,42.90
2023-05-09T15:31:32.696Z,43.10
2023-05-09T15:33:35.745Z,43.50
2023-05-09T15:35:38.673Z,43.60
2023-05-09T15:37:44.436Z,43.60
2023-05-09T15:39:47.463Z,43.80
2023-05-09T15:41:50.434Z,43.60
2023-05-09T15:43:58.370Z,43.50
2023-05-09T15:46:06.199Z,43.20
2023-05-09T15:48:09.267Z,43.10
2023-05-09T15:50:13.211Z,43.00
2023-05-09T15:52:16.349Z,43.00
2023-05-09T15:54:20.773Z,43.10
2023-05-09T15:56:25.618Z,43.20
2023-05-09T15:58:28.723Z,43.30
2023-05-09T16:00:31.775Z,43.40
2023-05-09T16:02:34.798Z,43.20
2023-05-09T16:04:38.427Z,43.30
2023-05-09T16:06:42.561Z,43.40
2023-05-09T16:08:47.613Z,43.00
2023-05-09T16:10:52.201Z,42.60
2023-05-09T16:12:57.189Z,41.80
2023-05-09T16:15:00.078Z,41.60
2023-05-09T16:17:04.028Z,41.30
2023-05-09T16:19:07.320Z,40.90
2023-05-09T16:21:10.669Z,40.90
2023-05-09T16:23:13.812Z,40.90
2023-05-09T16:25:18.152Z,40.70
2023-05-09T16:27:25.031Z,40.90
2023-05-09T16:29:28.574Z,40.50
2023-05-09T16:31:33.922Z,40.50
2023-05-09T16:33:38.324Z,40.40
2023-05-09T16:35:42.789Z,40.40
2023-05-09T16:37:47.941Z,40.00
2023-05-09T16:39:50.817Z,40.10
2023-05-09T16:41:54.133Z,40.10
2023-05-09T16:43:58.764Z,39.70
2023-05-09T16:46:01.769Z,40.00
2023-05-09T16:48:06.027Z,39.90
2023-05-09T16:50:10.420Z,39.90
2023-05-09T16:52:13.562Z,39.90
2023-05-09T16:54:18.592Z,39.70
2023-05-09T16:56:25.897Z,39.40
2023-05-09T16:58:29.004Z,39.60
2023-05-09T17:00:34.718Z,39.60
2023-05-09T17:02:39.675Z,39.80
2023-05-09T17:04:42.657Z,39.70
2023-05-09T17:06:45.960Z,40.10
2023-05-09T17:08:50.852Z,40.30
2023-05-09T17:10:55.882Z,40.40
2023-05-09T17:12:59.049Z,40.70
2023-05-09T17:15:02.253Z,40.70
2023-05-09T17:17:06.482Z,41.00
2023-05-09T17:19:09.351Z,40.90
2023-05-09T17:21:12.524Z,40.90
2023-05-09T17:23:17.544Z,41.10
2023-05-09T17:25:22.020Z,41.20
2023-05-09T17:27:26.930Z,41.30
2023-05-09T17:29:33.433Z,41.60
2023-05-09T17:31:36.371Z,41.60
2023-05-09T17:33:41.659Z,41.60
2023-05-09T17:35:49.637Z,41.80
2023-05-09T17:37:52.661Z,42.00
2023-05-09T17:39:55.517Z,42.00
2023-05-09T17:41:58.671Z,42.00
2023-05-09T17:44:01.526Z,42.00
2023-05-09T17:46:08.139Z,41.90
2023-05-09T17:48:11.045Z,41.90
2023-05-09T17:50:18.991Z,42.30
2023-05-09T17:52:22.441Z,41.70
2023-05-09T17:54:25.466Z,41.70
2023-05-09T17:56:28.404Z,41.70
2023-05-09T17:58:32.865Z,41.80
2023-05-09T18:00:36.528Z,41.90
2023-05-09T18:02:42.392Z,41.80
2023-05-09T18:04:46.297Z,42.00
2023-05-09T18:06:52.244Z,42.10
2023-05-09T18:08:56.209Z,42.30
2023-05-09T18:10:59.115Z,42.10
2023-05-09T18:13:03.250Z,42.10
2023-05-09T18:15:12.737Z,42.30
2023-05-09T18:17:15.652Z,43.00
2023-05-09T18:19:18.645Z,42.10
2023-05-09T18:21:21.542Z,42.30
2023-05-09T18:23:26.622Z,42.40
2023-05-09T18:25:29.651Z,42.60
2023-05-09T18:27:32.588Z,42.40
2023-05-09T18:29:35.638Z,42.50
2023-05-09T18:31:41.738Z,42.30
2023-05-09T18:33:46.518Z,42.40
2023-05-09T18:35:49.308Z,42.50
2023-05-09T18:37:52.526Z,42.50
2023-05-09T18:39:57.112Z,42.70
2023-05-09T18:42:01.921Z,42.70
2023-05-09T18:44:05.117Z,43.10
2023-05-09T18:46:08.518Z,43.20
2023-05-09T18:48:13.610Z,43.30
2023-05-09T18:50:18.818Z,43.50
2023-05-09T18:52:22.699Z,43.60
2023-05-09T18:54:29.842Z,43.60
2023-05-09T18:56:39.595Z,43.50
2023-05-09T18:58:42.629Z,43.60
2023-05-09T19:00:50.039Z,43.60
2023-05-09T19:02:53.204Z,43.60
2023-05-09T19:04:56.158Z,43.50
2023-05-09T19:06:59.945Z,43.20
2023-05-09T19:09:04.270Z,43.50
2023-05-09T19:11:07.404Z,43.30
2023-05-09T19:13:13.369Z,43.20
2023-05-09T19:15:17.919Z,43.40
2023-05-09T19:17:21.017Z,43.20
2023-05-09T19:19:25.242Z,43.40
2023-05-09T19:21:28.326Z,43.20
2023-05-09T19:23:31.557Z,43.20
2023-05-09T19:25:36.834Z,43.40
2023-05-09T19:27:39.806Z,43.20
2023-05-09T19:29:44.140Z,43.30
2023-05-09T19:31:48.465Z,43.30
2023-05-09T19:33:51.400Z,43.30
2023-05-09T19:35:55.772Z,43.30
2023-05-09T19:37:59.586Z,43.30
2023-05-09T19:40:05.263Z,43.30
2023-05-09T19:42:10.996Z,43.30
2023-05-09T19:44:16.557Z,43.40
2023-05-09T19:46:22.227Z,43.40
2023-05-09T19:48:26.324Z,43.70
2023-05-09T19:50:35.183Z,43.60
2023-05-09T19:52:41.130Z,43.60
2023-05-09T19:54:46.011Z,43.80
2023-05-09T19:56:48.862Z,44.00
2023-05-09T19:58:55.060Z,44.00
2023-05-09T20:00:58.698Z,44.20
2023-05-09T20:03:11.724Z,44.40
2023-05-09T20:05:17.690Z,44.50
2023-05-09T20:07:22.918Z,44.50
2023-05-09T20:09:25.822Z,44.60
2023-05-09T20:11:30.638Z,44.70
2023-05-09T20:13:35.725Z,45.00
2023-05-09T20:15:39.542Z,45.10
2023-05-09T20:17:43.743Z,45.30
2023-05-09T20:19:47.973Z,45.40
2023-05-09T20:21:50.899Z,45.40
2023-05-09T20:24:02.450Z,45.50
2023-05-09T20:26:05.393Z,45.60
2023-05-09T20:28:08.996Z,45.50
2023-05-09T20:30:13.018Z,45.60
2023-05-09T20:32:17.935Z,46.50
2023-05-09T20:34:22.790Z,45.80
2023-05-09T20:36:30.640Z,45.90
2023-05-09T20:38:35.422Z,45.90
2023-05-09T20:40:38.598Z,45.70
2023-05-09T20:42:41.512Z,45.90
2023-05-09T20:44:44.709Z,46.00
2023-05-09T20:46:54.854Z,46.00
2023-05-09T20:49:00.611Z,45.80
2023-05-09T20:51:06.582Z,46.00
2023-05-09T20:53:13.451Z,46.00
2023-05-09T20:55:16.628Z,46.00
2023-05-09T20:57:19.630Z,45.90
2023-05-09T20:59:24.394Z,46.00
2023-05-09T21:01:28.110Z,46.20
2023-05-09T21:03:31.293Z,45.90
2023-05-09T21:05:34.200Z,46.20
2023-05-09T21:07:40.901Z,46.00
2023-05-09T21:09:48.247Z,45.90
2023-05-09T21:11:52.814Z,46.10
2023-05-09T21:13:58.620Z,45.90
2023-05-09T21:16:01.520Z,46.00
2023-05-09T21:18:08.586Z,45.90
2023-05-09T21:20:12.313Z,46.10
2023-05-09T21:22:19.248Z,46.20
2023-05-09T21:24:22.115Z,46.30
2023-05-09T21:26:31.711Z,46.20
2023-05-09T21:28:34.760Z,46.30
2023-05-09T21:30:39.429Z,46.20
2023-05-09T21:32:44.254Z,46.20
2023-05-09T21:34:50.037Z,46.20
2023-05-09T21:36:52.941Z,46.20
2023-05-09T21:38:55.889Z,46.30
2023-05-09T21:40:59.048Z,46.20
2023-05-09T21:43:05.886Z,46.50
2023-05-09T21:45:09.375Z,46.30
2023-05-09T21:47:17.138Z,46.30
2023-05-09T21:49:21.803Z,46.60
2023-05-09T21:51:24.669Z,46.50
2023-05-09T21:53:27.596Z,46.70
2023-05-09T21:55:30.681Z,46.70
2023-05-09T21:57:33.637Z,46.90
2023-05-09T21:59:38.306Z,46.80
2023-05-09T22:01:42.143Z,46.60
2023-05-09T22:03:47.376Z,46.40
2023-05-09T22:05:54.441Z,46.30
2023-05-09T22:07:57.407Z,46.50
2023-05-09T22:10:06.021Z,46.50
2023-05-09T22:12:11.334Z,46.30
2023-05-09T22:14:14.222Z,46.30
2023-05-09T22:16:18.549Z,46.30
2023-05-09T22:18:21.610Z,46.40
2023-05-09T22:20:24.894Z,46.40
2023-05-09T22:22:29.688Z,46.30
2023-05-09T22:24:32.526Z,46.30
2023-05-09T22:26:35.496Z,46.60
2023-05-09T22:28:38.553Z,46.40
2023-05-09T22:30:41.446Z,46.50
2023-05-09T22:32:48.295Z,46.60
2023-05-09T22:34:51.198Z,46.50
2023-05-09T22:36:59.797Z,46.50
2023-05-09T22:39:03.037Z,46.70
2023-05-09T22:41:07.393Z,46.70
2023-05-09T22:43:12.988Z,46.80
2023-05-09T22:45:15.872Z,46.70
2023-05-09T22:47:18.829Z,46.90
2023-05-09T22:49:26.072Z,47.00
2023-05-09T22:51:29.199Z,46.90
2023-05-09T22:53:32.619Z,47.00
2023-05-09T22:55:38.646Z,47.00
2023-05-09T22:57:41.723Z,47.00
2023-05-09T22:59:45.067Z,47.10
2023-05-09T23:01:48.020Z,46.90
2023-05-09T23:03:52.855Z,47.00
2023-05-09T23:05:57.117Z,46.90
2023-05-09T23:08:03.277Z,47.10
2023-05-09T23:10:06.859Z,47.30
2023-05-09T23:12:16.198Z,47.20
2023-05-09T23:14:19.093Z,47.20
2023-05-09T23:16:23.942Z,47.30
2023-05-09T23:18:30.264Z,47.20
2023-05-09T23:20:33.161Z,47.20
2023-05-09T23:22:37.409Z,47.20
2023-05-09T23:24:42.184Z,47.10
2023-05-09T23:26:50.208Z,47.10
2023-05-09T23:28:55.103Z,47.00
2023-05-09T23:30:58.187Z,46.90
2023-05-09T23:33:01.156Z,47.20
2023-05-09T23:35:07.921Z,47.00
2023-05-09T23:37:11.787Z,47.00
2023-05-09T23:39:17.010Z,47.20
2023-05-09T23:41:20.065Z,47.20
2023-05-09T23:43:22.941Z,47.20
2023-05-09T23:45:28.834Z,47.30
2023-05-09T23:47:32.043Z,47.30
2023-05-09T23:49:34.965Z,47.20
2023-05-09T23:51:40.549Z,47.10
2023-05-09T23:53:45.916Z,47.20
2023-05-09T23:55:50.087Z,47.40
2023-05-09T23:57:53.080Z,47.50
